<?xml version="1.0" encoding="UTF-8" standalone="no" ?>
<gpx xmlns="http://www.topografix.com/GPX/1/1" xmlns:xsi="http://www.w3.org/2001/XMLSchema-instance" xsi:schemaLocation="http://www.topografix.com/GPX/1/1 http://www.topografix.com/GPX/1/1/gpx.xsd" version="1.1" creator="VisuGPX - https://www.visugpx.com">
  <metadata>
    <name>Sortie Ligueux Margueron du 16/01/2011</name>
    <desc><![CDATA[Très beau temps.
Terrain très gras]]></desc>
  </metadata>
  <trk>
    <name><![CDATA[16/01/2011 13:40]]></name>
    <desc><![CDATA[Cycling]]></desc>
    <trkseg>
      <trkpt lat="44.78539" lon="0.26833">
        <ele>112</ele>
        <time>2011-01-16T13:40:46Z</time>
      </trkpt>
      <trkpt lat="44.78536" lon="0.2686">
        <ele>108.5</ele>
        <time>2011-01-16T13:41:39Z</time>
      </trkpt>
      <trkpt lat="44.78483" lon="0.26856">
        <ele>102.5</ele>
        <time>2011-01-16T13:41:59Z</time>
      </trkpt>
      <trkpt lat="44.78376" lon="0.26888">
        <ele>102</ele>
        <time>2011-01-16T13:42:37Z</time>
      </trkpt>
      <trkpt lat="44.78301" lon="0.26861">
        <ele>96</ele>
        <time>2011-01-16T13:42:57Z</time>
      </trkpt>
      <trkpt lat="44.78149" lon="0.26854">
        <ele>96.5</ele>
        <time>2011-01-16T13:43:32Z</time>
      </trkpt>
      <trkpt lat="44.78142" lon="0.26875">
        <ele>95.5</ele>
        <time>2011-01-16T13:43:36Z</time>
      </trkpt>
      <trkpt lat="44.78142" lon="0.26937">
        <ele>99</ele>
        <time>2011-01-16T13:43:49Z</time>
      </trkpt>
      <trkpt lat="44.77894" lon="0.27095">
        <ele>119</ele>
        <time>2011-01-16T13:45:21Z</time>
      </trkpt>
      <trkpt lat="44.7784" lon="0.27159">
        <ele>115.5</ele>
        <time>2011-01-16T13:45:45Z</time>
      </trkpt>
      <trkpt lat="44.77822" lon="0.2732">
        <ele>112</ele>
        <time>2011-01-16T13:46:23Z</time>
      </trkpt>
      <trkpt lat="44.77788" lon="0.2741">
        <ele>125.5</ele>
        <time>2011-01-16T13:46:54Z</time>
      </trkpt>
      <trkpt lat="44.77776" lon="0.27468">
        <ele>131.5</ele>
        <time>2011-01-16T13:47:13Z</time>
      </trkpt>
      <trkpt lat="44.77747" lon="0.27526">
        <ele>136</ele>
        <time>2011-01-16T13:47:29Z</time>
      </trkpt>
      <trkpt lat="44.77712" lon="0.27544">
        <ele>127</ele>
        <time>2011-01-16T13:47:39Z</time>
      </trkpt>
      <trkpt lat="44.77686" lon="0.27599">
        <ele>103</ele>
        <time>2011-01-16T13:47:49Z</time>
      </trkpt>
      <trkpt lat="44.77667" lon="0.27617">
        <ele>98</ele>
        <time>2011-01-16T13:47:55Z</time>
      </trkpt>
      <trkpt lat="44.77577" lon="0.27632">
        <ele>109</ele>
        <time>2011-01-16T13:48:31Z</time>
      </trkpt>
      <trkpt lat="44.77571" lon="0.27626">
        <ele>107</ele>
        <time>2011-01-16T13:48:34Z</time>
      </trkpt>
      <trkpt lat="44.77538" lon="0.27638">
        <ele>103.5</ele>
        <time>2011-01-16T13:48:56Z</time>
      </trkpt>
      <trkpt lat="44.77527" lon="0.27625">
        <ele>117</ele>
        <time>2011-01-16T13:49:04Z</time>
      </trkpt>
      <trkpt lat="44.77498" lon="0.27695">
        <ele>125</ele>
        <time>2011-01-16T13:49:39Z</time>
      </trkpt>
      <trkpt lat="44.77502" lon="0.27701">
        <ele>130.5</ele>
        <time>2011-01-16T13:49:41Z</time>
      </trkpt>
      <trkpt lat="44.77459" lon="0.2775">
        <ele>113</ele>
        <time>2011-01-16T13:50:36Z</time>
      </trkpt>
      <trkpt lat="44.77401" lon="0.27794">
        <ele>118</ele>
        <time>2011-01-16T13:51:05Z</time>
      </trkpt>
      <trkpt lat="44.77279" lon="0.27814">
        <ele>113.5</ele>
        <time>2011-01-16T13:51:55Z</time>
      </trkpt>
      <trkpt lat="44.77217" lon="0.27803">
        <ele>121.5</ele>
        <time>2011-01-16T13:52:23Z</time>
      </trkpt>
      <trkpt lat="44.77124" lon="0.27744">
        <ele>128</ele>
        <time>2011-01-16T13:53:26Z</time>
      </trkpt>
      <trkpt lat="44.77052" lon="0.27735">
        <ele>132</ele>
        <time>2011-01-16T13:55:29Z</time>
      </trkpt>
      <trkpt lat="44.77018" lon="0.27771">
        <ele>126</ele>
        <time>2011-01-16T13:55:50Z</time>
      </trkpt>
      <trkpt lat="44.76935" lon="0.27894">
        <ele>129</ele>
        <time>2011-01-16T13:56:37Z</time>
      </trkpt>
      <trkpt lat="44.76838" lon="0.28078">
        <ele>136</ele>
        <time>2011-01-16T13:57:45Z</time>
      </trkpt>
      <trkpt lat="44.76745" lon="0.28222">
        <ele>136.5</ele>
        <time>2011-01-16T13:58:42Z</time>
      </trkpt>
      <trkpt lat="44.76707" lon="0.28266">
        <ele>134.5</ele>
        <time>2011-01-16T13:58:59Z</time>
      </trkpt>
      <trkpt lat="44.76624" lon="0.28326">
        <ele>132.5</ele>
        <time>2011-01-16T14:00:10Z</time>
      </trkpt>
      <trkpt lat="44.76558" lon="0.28415">
        <ele>131</ele>
        <time>2011-01-16T14:01:11Z</time>
      </trkpt>
      <trkpt lat="44.76491" lon="0.28477">
        <ele>139</ele>
        <time>2011-01-16T14:01:48Z</time>
      </trkpt>
      <trkpt lat="44.76433" lon="0.28506">
        <ele>130</ele>
        <time>2011-01-16T14:02:16Z</time>
      </trkpt>
      <trkpt lat="44.76351" lon="0.2851">
        <ele>129.5</ele>
        <time>2011-01-16T14:02:51Z</time>
      </trkpt>
      <trkpt lat="44.76202" lon="0.28493">
        <ele>138</ele>
        <time>2011-01-16T14:03:36Z</time>
      </trkpt>
      <trkpt lat="44.76113" lon="0.28453">
        <ele>136.5</ele>
        <time>2011-01-16T14:04:08Z</time>
      </trkpt>
      <trkpt lat="44.75992" lon="0.28488">
        <ele>142</ele>
        <time>2011-01-16T14:04:55Z</time>
      </trkpt>
      <trkpt lat="44.75987" lon="0.2848">
        <ele>141</ele>
        <time>2011-01-16T14:05:00Z</time>
      </trkpt>
      <trkpt lat="44.75991" lon="0.28438">
        <ele>136</ele>
        <time>2011-01-16T14:05:21Z</time>
      </trkpt>
      <trkpt lat="44.75979" lon="0.28431">
        <ele>150.5</ele>
        <time>2011-01-16T14:05:46Z</time>
      </trkpt>
      <trkpt lat="44.75975" lon="0.28356">
        <ele>157.5</ele>
        <time>2011-01-16T14:06:13Z</time>
      </trkpt>
      <trkpt lat="44.75991" lon="0.28273">
        <ele>155.5</ele>
        <time>2011-01-16T14:06:40Z</time>
      </trkpt>
      <trkpt lat="44.76028" lon="0.28177">
        <ele>143</ele>
        <time>2011-01-16T14:07:06Z</time>
      </trkpt>
      <trkpt lat="44.76064" lon="0.28017">
        <ele>146.5</ele>
        <time>2011-01-16T14:07:55Z</time>
      </trkpt>
      <trkpt lat="44.76247" lon="0.27603">
        <ele>139</ele>
        <time>2011-01-16T14:09:58Z</time>
      </trkpt>
      <trkpt lat="44.762" lon="0.27632">
        <ele>139.5</ele>
        <time>2011-01-16T14:10:20Z</time>
      </trkpt>
      <trkpt lat="44.76013" lon="0.27669">
        <ele>159</ele>
        <time>2011-01-16T14:11:49Z</time>
      </trkpt>
      <trkpt lat="44.75954" lon="0.2769">
        <ele>161</ele>
        <time>2011-01-16T14:12:22Z</time>
      </trkpt>
      <trkpt lat="44.7595" lon="0.27701">
        <ele>157.5</ele>
        <time>2011-01-16T14:12:30Z</time>
      </trkpt>
      <trkpt lat="44.75917" lon="0.27712">
        <ele>159.5</ele>
        <time>2011-01-16T14:12:40Z</time>
      </trkpt>
      <trkpt lat="44.759" lon="0.2773">
        <ele>163.5</ele>
        <time>2011-01-16T14:12:50Z</time>
      </trkpt>
      <trkpt lat="44.75888" lon="0.27728">
        <ele>159.5</ele>
        <time>2011-01-16T14:12:55Z</time>
      </trkpt>
      <trkpt lat="44.75784" lon="0.27837">
        <ele>159</ele>
        <time>2011-01-16T14:13:44Z</time>
      </trkpt>
      <trkpt lat="44.75754" lon="0.27853">
        <ele>161</ele>
        <time>2011-01-16T14:14:00Z</time>
      </trkpt>
      <trkpt lat="44.75753" lon="0.27863">
        <ele>156.5</ele>
        <time>2011-01-16T14:14:05Z</time>
      </trkpt>
      <trkpt lat="44.75728" lon="0.27885">
        <ele>171.5</ele>
        <time>2011-01-16T14:14:25Z</time>
      </trkpt>
      <trkpt lat="44.75727" lon="0.27902">
        <ele>174</ele>
        <time>2011-01-16T14:14:34Z</time>
      </trkpt>
      <trkpt lat="44.7572" lon="0.27907">
        <ele>178.5</ele>
        <time>2011-01-16T14:14:36Z</time>
      </trkpt>
      <trkpt lat="44.75684" lon="0.28031">
        <ele>133</ele>
        <time>2011-01-16T14:15:18Z</time>
      </trkpt>
      <trkpt lat="44.7558" lon="0.28109">
        <ele>157.5</ele>
        <time>2011-01-16T14:16:10Z</time>
      </trkpt>
      <trkpt lat="44.75583" lon="0.28115">
        <ele>159</ele>
        <time>2011-01-16T14:16:16Z</time>
      </trkpt>
      <trkpt lat="44.75534" lon="0.28115">
        <ele>167.5</ele>
        <time>2011-01-16T14:19:16Z</time>
      </trkpt>
      <trkpt lat="44.75565" lon="0.28142">
        <ele>165</ele>
        <time>2011-01-16T14:19:42Z</time>
      </trkpt>
      <trkpt lat="44.75573" lon="0.28171">
        <ele>163.5</ele>
        <time>2011-01-16T14:19:51Z</time>
      </trkpt>
      <trkpt lat="44.75635" lon="0.28209">
        <ele>168.5</ele>
        <time>2011-01-16T14:20:43Z</time>
      </trkpt>
      <trkpt lat="44.75632" lon="0.28245">
        <ele>171</ele>
        <time>2011-01-16T14:20:59Z</time>
      </trkpt>
      <trkpt lat="44.75596" lon="0.28266">
        <ele>183.5</ele>
        <time>2011-01-16T14:21:30Z</time>
      </trkpt>
      <trkpt lat="44.75595" lon="0.28286">
        <ele>168</ele>
        <time>2011-01-16T14:21:47Z</time>
      </trkpt>
      <trkpt lat="44.75571" lon="0.28293">
        <ele>157</ele>
        <time>2011-01-16T14:22:20Z</time>
      </trkpt>
      <trkpt lat="44.75612" lon="0.28355">
        <ele>187</ele>
        <time>2011-01-16T14:23:15Z</time>
      </trkpt>
      <trkpt lat="44.75634" lon="0.28448">
        <ele>130.5</ele>
        <time>2011-01-16T14:23:32Z</time>
      </trkpt>
      <trkpt lat="44.75661" lon="0.28505">
        <ele>134.5</ele>
        <time>2011-01-16T14:23:47Z</time>
      </trkpt>
      <trkpt lat="44.75659" lon="0.28561">
        <ele>136.5</ele>
        <time>2011-01-16T14:24:02Z</time>
      </trkpt>
      <trkpt lat="44.7564" lon="0.28616">
        <ele>138</ele>
        <time>2011-01-16T14:24:18Z</time>
      </trkpt>
      <trkpt lat="44.75614" lon="0.28629">
        <ele>143</ele>
        <time>2011-01-16T14:24:29Z</time>
      </trkpt>
      <trkpt lat="44.75599" lon="0.2865">
        <ele>154.5</ele>
        <time>2011-01-16T14:25:15Z</time>
      </trkpt>
      <trkpt lat="44.75601" lon="0.28643">
        <ele>154.5</ele>
        <time>2011-01-16T14:25:17Z</time>
      </trkpt>
      <trkpt lat="44.75601" lon="0.28658">
        <ele>160</ele>
        <time>2011-01-16T14:25:54Z</time>
      </trkpt>
      <trkpt lat="44.75602" lon="0.28646">
        <ele>163</ele>
        <time>2011-01-16T14:26:46Z</time>
      </trkpt>
      <trkpt lat="44.75597" lon="0.28659">
        <ele>164</ele>
        <time>2011-01-16T14:27:01Z</time>
      </trkpt>
      <trkpt lat="44.75547" lon="0.28685">
        <ele>173</ele>
        <time>2011-01-16T14:27:44Z</time>
      </trkpt>
      <trkpt lat="44.75529" lon="0.28721">
        <ele>186.5</ele>
        <time>2011-01-16T14:28:08Z</time>
      </trkpt>
      <trkpt lat="44.75533" lon="0.28737">
        <ele>176</ele>
        <time>2011-01-16T14:28:15Z</time>
      </trkpt>
      <trkpt lat="44.75521" lon="0.28764">
        <ele>180</ele>
        <time>2011-01-16T14:28:30Z</time>
      </trkpt>
      <trkpt lat="44.75503" lon="0.28773">
        <ele>189.5</ele>
        <time>2011-01-16T14:28:37Z</time>
      </trkpt>
      <trkpt lat="44.75489" lon="0.28799">
        <ele>199</ele>
        <time>2011-01-16T14:28:49Z</time>
      </trkpt>
      <trkpt lat="44.75427" lon="0.28806">
        <ele>196.5</ele>
        <time>2011-01-16T14:29:17Z</time>
      </trkpt>
      <trkpt lat="44.75318" lon="0.28871">
        <ele>210</ele>
        <time>2011-01-16T14:30:10Z</time>
      </trkpt>
      <trkpt lat="44.75323" lon="0.28942">
        <ele>214.5</ele>
        <time>2011-01-16T14:30:26Z</time>
      </trkpt>
      <trkpt lat="44.75361" lon="0.28976">
        <ele>207</ele>
        <time>2011-01-16T14:30:55Z</time>
      </trkpt>
      <trkpt lat="44.75392" lon="0.29035">
        <ele>192</ele>
        <time>2011-01-16T14:31:17Z</time>
      </trkpt>
      <trkpt lat="44.75406" lon="0.29121">
        <ele>167.5</ele>
        <time>2011-01-16T14:31:57Z</time>
      </trkpt>
      <trkpt lat="44.75399" lon="0.29196">
        <ele>161.5</ele>
        <time>2011-01-16T14:32:25Z</time>
      </trkpt>
      <trkpt lat="44.75407" lon="0.2922">
        <ele>160.5</ele>
        <time>2011-01-16T14:32:31Z</time>
      </trkpt>
      <trkpt lat="44.75394" lon="0.2923">
        <ele>165.5</ele>
        <time>2011-01-16T14:32:35Z</time>
      </trkpt>
      <trkpt lat="44.75386" lon="0.29281">
        <ele>177</ele>
        <time>2011-01-16T14:32:48Z</time>
      </trkpt>
      <trkpt lat="44.75392" lon="0.29344">
        <ele>121</ele>
        <time>2011-01-16T14:33:03Z</time>
      </trkpt>
      <trkpt lat="44.7533" lon="0.29344">
        <ele>136.5</ele>
        <time>2011-01-16T14:33:31Z</time>
      </trkpt>
      <trkpt lat="44.75315" lon="0.29356">
        <ele>144.5</ele>
        <time>2011-01-16T14:33:34Z</time>
      </trkpt>
      <trkpt lat="44.75258" lon="0.29357">
        <ele>156.5</ele>
        <time>2011-01-16T14:33:52Z</time>
      </trkpt>
      <trkpt lat="44.75247" lon="0.29388">
        <ele>174.5</ele>
        <time>2011-01-16T14:34:06Z</time>
      </trkpt>
      <trkpt lat="44.75217" lon="0.29376">
        <ele>192</ele>
        <time>2011-01-16T14:34:42Z</time>
      </trkpt>
      <trkpt lat="44.75199" lon="0.29386">
        <ele>192</ele>
        <time>2011-01-16T14:34:57Z</time>
      </trkpt>
      <trkpt lat="44.75198" lon="0.29308">
        <ele>209</ele>
        <time>2011-01-16T14:35:45Z</time>
      </trkpt>
      <trkpt lat="44.75215" lon="0.29285">
        <ele>209.5</ele>
        <time>2011-01-16T14:35:59Z</time>
      </trkpt>
      <trkpt lat="44.75222" lon="0.29214">
        <ele>216.5</ele>
        <time>2011-01-16T14:36:19Z</time>
      </trkpt>
      <trkpt lat="44.75217" lon="0.29188">
        <ele>215</ele>
        <time>2011-01-16T14:36:34Z</time>
      </trkpt>
      <trkpt lat="44.75204" lon="0.29174">
        <ele>219.5</ele>
        <time>2011-01-16T14:36:43Z</time>
      </trkpt>
      <trkpt lat="44.75183" lon="0.29106">
        <ele>228.5</ele>
        <time>2011-01-16T14:37:02Z</time>
      </trkpt>
      <trkpt lat="44.75184" lon="0.29069">
        <ele>235</ele>
        <time>2011-01-16T14:37:13Z</time>
      </trkpt>
      <trkpt lat="44.75173" lon="0.29056">
        <ele>239.5</ele>
        <time>2011-01-16T14:37:23Z</time>
      </trkpt>
      <trkpt lat="44.75154" lon="0.2899">
        <ele>242</ele>
        <time>2011-01-16T14:37:45Z</time>
      </trkpt>
      <trkpt lat="44.75131" lon="0.28968">
        <ele>247.5</ele>
        <time>2011-01-16T14:37:56Z</time>
      </trkpt>
      <trkpt lat="44.75114" lon="0.28934">
        <ele>231</ele>
        <time>2011-01-16T14:38:07Z</time>
      </trkpt>
      <trkpt lat="44.75122" lon="0.28885">
        <ele>214.5</ele>
        <time>2011-01-16T14:38:22Z</time>
      </trkpt>
      <trkpt lat="44.75139" lon="0.28848">
        <ele>183</ele>
        <time>2011-01-16T14:38:34Z</time>
      </trkpt>
      <trkpt lat="44.75147" lon="0.28797">
        <ele>195.5</ele>
        <time>2011-01-16T14:38:50Z</time>
      </trkpt>
      <trkpt lat="44.75167" lon="0.2874">
        <ele>199.5</ele>
        <time>2011-01-16T14:39:13Z</time>
      </trkpt>
      <trkpt lat="44.75159" lon="0.2873">
        <ele>209.5</ele>
        <time>2011-01-16T14:39:19Z</time>
      </trkpt>
      <trkpt lat="44.75184" lon="0.28692">
        <ele>186</ele>
        <time>2011-01-16T14:40:18Z</time>
      </trkpt>
      <trkpt lat="44.75233" lon="0.28557">
        <ele>161</ele>
        <time>2011-01-16T14:41:10Z</time>
      </trkpt>
      <trkpt lat="44.75244" lon="0.28543">
        <ele>146</ele>
        <time>2011-01-16T14:41:15Z</time>
      </trkpt>
      <trkpt lat="44.75283" lon="0.28423">
        <ele>203.5</ele>
        <time>2011-01-16T14:41:41Z</time>
      </trkpt>
      <trkpt lat="44.7533" lon="0.28331">
        <ele>202.5</ele>
        <time>2011-01-16T14:42:05Z</time>
      </trkpt>
      <trkpt lat="44.75386" lon="0.28264">
        <ele>192</ele>
        <time>2011-01-16T14:42:28Z</time>
      </trkpt>
      <trkpt lat="44.75408" lon="0.28219">
        <ele>187.5</ele>
        <time>2011-01-16T14:42:59Z</time>
      </trkpt>
      <trkpt lat="44.75385" lon="0.28201">
        <ele>181</ele>
        <time>2011-01-16T14:43:19Z</time>
      </trkpt>
      <trkpt lat="44.75372" lon="0.2817">
        <ele>185.5</ele>
        <time>2011-01-16T14:43:31Z</time>
      </trkpt>
      <trkpt lat="44.75334" lon="0.28136">
        <ele>203</ele>
        <time>2011-01-16T14:43:51Z</time>
      </trkpt>
      <trkpt lat="44.7536" lon="0.28023">
        <ele>181.5</ele>
        <time>2011-01-16T14:44:10Z</time>
      </trkpt>
      <trkpt lat="44.75424" lon="0.2786">
        <ele>166.5</ele>
        <time>2011-01-16T14:45:58Z</time>
      </trkpt>
      <trkpt lat="44.75386" lon="0.27688">
        <ele>168</ele>
        <time>2011-01-16T14:46:51Z</time>
      </trkpt>
      <trkpt lat="44.754" lon="0.27419">
        <ele>158</ele>
        <time>2011-01-16T14:47:40Z</time>
      </trkpt>
      <trkpt lat="44.75362" lon="0.27315">
        <ele>160</ele>
        <time>2011-01-16T14:48:24Z</time>
      </trkpt>
      <trkpt lat="44.75335" lon="0.27283">
        <ele>168</ele>
        <time>2011-01-16T14:48:55Z</time>
      </trkpt>
      <trkpt lat="44.75308" lon="0.27216">
        <ele>165.5</ele>
        <time>2011-01-16T14:49:26Z</time>
      </trkpt>
      <trkpt lat="44.7525" lon="0.27151">
        <ele>193.5</ele>
        <time>2011-01-16T14:49:53Z</time>
      </trkpt>
      <trkpt lat="44.75229" lon="0.271">
        <ele>223.5</ele>
        <time>2011-01-16T14:50:12Z</time>
      </trkpt>
      <trkpt lat="44.75225" lon="0.2704">
        <ele>155</ele>
        <time>2011-01-16T14:50:31Z</time>
      </trkpt>
      <trkpt lat="44.75208" lon="0.27017">
        <ele>147</ele>
        <time>2011-01-16T14:50:37Z</time>
      </trkpt>
      <trkpt lat="44.75151" lon="0.26806">
        <ele>127.5</ele>
        <time>2011-01-16T14:51:23Z</time>
      </trkpt>
      <trkpt lat="44.75154" lon="0.26697">
        <ele>140.5</ele>
        <time>2011-01-16T14:51:50Z</time>
      </trkpt>
      <trkpt lat="44.75159" lon="0.26686">
        <ele>140.5</ele>
        <time>2011-01-16T14:51:52Z</time>
      </trkpt>
      <trkpt lat="44.75162" lon="0.266">
        <ele>161</ele>
        <time>2011-01-16T14:52:11Z</time>
      </trkpt>
      <trkpt lat="44.75146" lon="0.26365">
        <ele>161.5</ele>
        <time>2011-01-16T14:53:12Z</time>
      </trkpt>
      <trkpt lat="44.75119" lon="0.2627">
        <ele>160</ele>
        <time>2011-01-16T14:53:37Z</time>
      </trkpt>
      <trkpt lat="44.75129" lon="0.26238">
        <ele>166</ele>
        <time>2011-01-16T14:53:46Z</time>
      </trkpt>
      <trkpt lat="44.75069" lon="0.25828">
        <ele>176</ele>
        <time>2011-01-16T14:55:37Z</time>
      </trkpt>
      <trkpt lat="44.75022" lon="0.2574">
        <ele>193</ele>
        <time>2011-01-16T14:56:41Z</time>
      </trkpt>
      <trkpt lat="44.75007" lon="0.25642">
        <ele>182</ele>
        <time>2011-01-16T14:57:08Z</time>
      </trkpt>
      <trkpt lat="44.75009" lon="0.2557">
        <ele>170.5</ele>
        <time>2011-01-16T14:58:03Z</time>
      </trkpt>
      <trkpt lat="44.75047" lon="0.25416">
        <ele>169</ele>
        <time>2011-01-16T14:58:57Z</time>
      </trkpt>
      <trkpt lat="44.75043" lon="0.25323">
        <ele>165</ele>
        <time>2011-01-16T14:59:12Z</time>
      </trkpt>
      <trkpt lat="44.75025" lon="0.25264">
        <ele>166.5</ele>
        <time>2011-01-16T14:59:27Z</time>
      </trkpt>
      <trkpt lat="44.75033" lon="0.2517">
        <ele>161</ele>
        <time>2011-01-16T14:59:44Z</time>
      </trkpt>
      <trkpt lat="44.75077" lon="0.25038">
        <ele>167</ele>
        <time>2011-01-16T15:00:11Z</time>
      </trkpt>
      <trkpt lat="44.75094" lon="0.24899">
        <ele>171</ele>
        <time>2011-01-16T15:00:36Z</time>
      </trkpt>
      <trkpt lat="44.75206" lon="0.24597">
        <ele>172.5</ele>
        <time>2011-01-16T15:01:27Z</time>
      </trkpt>
      <trkpt lat="44.75281" lon="0.24477">
        <ele>173</ele>
        <time>2011-01-16T15:03:41Z</time>
      </trkpt>
      <trkpt lat="44.75353" lon="0.24454">
        <ele>171</ele>
        <time>2011-01-16T15:04:09Z</time>
      </trkpt>
      <trkpt lat="44.7546" lon="0.24354">
        <ele>178</ele>
        <time>2011-01-16T15:05:07Z</time>
      </trkpt>
      <trkpt lat="44.75488" lon="0.24347">
        <ele>189.5</ele>
        <time>2011-01-16T15:05:20Z</time>
      </trkpt>
      <trkpt lat="44.75597" lon="0.24268">
        <ele>195.5</ele>
        <time>2011-01-16T15:05:58Z</time>
      </trkpt>
      <trkpt lat="44.75647" lon="0.2425">
        <ele>210</ele>
        <time>2011-01-16T15:06:14Z</time>
      </trkpt>
      <trkpt lat="44.75781" lon="0.24142">
        <ele>189.5</ele>
        <time>2011-01-16T15:07:52Z</time>
      </trkpt>
      <trkpt lat="44.75786" lon="0.24026">
        <ele>180.5</ele>
        <time>2011-01-16T15:08:24Z</time>
      </trkpt>
      <trkpt lat="44.75804" lon="0.23947">
        <ele>161</ele>
        <time>2011-01-16T15:08:44Z</time>
      </trkpt>
      <trkpt lat="44.75796" lon="0.23924">
        <ele>163.5</ele>
        <time>2011-01-16T15:08:50Z</time>
      </trkpt>
      <trkpt lat="44.75801" lon="0.23878">
        <ele>161.5</ele>
        <time>2011-01-16T15:09:00Z</time>
      </trkpt>
      <trkpt lat="44.75864" lon="0.23782">
        <ele>169</ele>
        <time>2011-01-16T15:09:28Z</time>
      </trkpt>
      <trkpt lat="44.75899" lon="0.23748">
        <ele>175.5</ele>
        <time>2011-01-16T15:09:41Z</time>
      </trkpt>
      <trkpt lat="44.75893" lon="0.2374">
        <ele>179.5</ele>
        <time>2011-01-16T15:09:46Z</time>
      </trkpt>
      <trkpt lat="44.75974" lon="0.2367">
        <ele>180.5</ele>
        <time>2011-01-16T15:10:25Z</time>
      </trkpt>
      <trkpt lat="44.76038" lon="0.23676">
        <ele>169.5</ele>
        <time>2011-01-16T15:11:03Z</time>
      </trkpt>
      <trkpt lat="44.7609" lon="0.23705">
        <ele>163.5</ele>
        <time>2011-01-16T15:11:37Z</time>
      </trkpt>
      <trkpt lat="44.76109" lon="0.23739">
        <ele>186.5</ele>
        <time>2011-01-16T15:11:46Z</time>
      </trkpt>
      <trkpt lat="44.76194" lon="0.23788">
        <ele>203.5</ele>
        <time>2011-01-16T15:12:16Z</time>
      </trkpt>
      <trkpt lat="44.76214" lon="0.23782">
        <ele>205.5</ele>
        <time>2011-01-16T15:12:23Z</time>
      </trkpt>
      <trkpt lat="44.7622" lon="0.23796">
        <ele>210.5</ele>
        <time>2011-01-16T15:12:29Z</time>
      </trkpt>
      <trkpt lat="44.76277" lon="0.23825">
        <ele>195</ele>
        <time>2011-01-16T15:12:58Z</time>
      </trkpt>
      <trkpt lat="44.76305" lon="0.23855">
        <ele>210.5</ele>
        <time>2011-01-16T15:13:13Z</time>
      </trkpt>
      <trkpt lat="44.76309" lon="0.23872">
        <ele>188</ele>
        <time>2011-01-16T15:14:03Z</time>
      </trkpt>
      <trkpt lat="44.76324" lon="0.23876">
        <ele>182.5</ele>
        <time>2011-01-16T15:15:22Z</time>
      </trkpt>
      <trkpt lat="44.76342" lon="0.23765">
        <ele>171</ele>
        <time>2011-01-16T15:15:54Z</time>
      </trkpt>
      <trkpt lat="44.76362" lon="0.23544">
        <ele>167</ele>
        <time>2011-01-16T15:16:28Z</time>
      </trkpt>
      <trkpt lat="44.76532" lon="0.234">
        <ele>161</ele>
        <time>2011-01-16T15:17:18Z</time>
      </trkpt>
      <trkpt lat="44.76574" lon="0.23493">
        <ele>145</ele>
        <time>2011-01-16T15:18:05Z</time>
      </trkpt>
      <trkpt lat="44.7657" lon="0.23507">
        <ele>141.5</ele>
        <time>2011-01-16T15:18:10Z</time>
      </trkpt>
      <trkpt lat="44.76592" lon="0.23625">
        <ele>161.5</ele>
        <time>2011-01-16T15:18:41Z</time>
      </trkpt>
      <trkpt lat="44.76549" lon="0.23706">
        <ele>203</ele>
        <time>2011-01-16T15:18:51Z</time>
      </trkpt>
      <trkpt lat="44.76545" lon="0.23763">
        <ele>204</ele>
        <time>2011-01-16T15:19:15Z</time>
      </trkpt>
      <trkpt lat="44.76482" lon="0.23832">
        <ele>187</ele>
        <time>2011-01-16T15:19:53Z</time>
      </trkpt>
      <trkpt lat="44.76466" lon="0.23888">
        <ele>199.5</ele>
        <time>2011-01-16T15:20:11Z</time>
      </trkpt>
      <trkpt lat="44.76476" lon="0.23926">
        <ele>188.5</ele>
        <time>2011-01-16T15:20:25Z</time>
      </trkpt>
      <trkpt lat="44.76471" lon="0.23939">
        <ele>177</ele>
        <time>2011-01-16T15:20:31Z</time>
      </trkpt>
      <trkpt lat="44.76485" lon="0.23978">
        <ele>176.5</ele>
        <time>2011-01-16T15:20:47Z</time>
      </trkpt>
      <trkpt lat="44.76466" lon="0.24085">
        <ele>171.5</ele>
        <time>2011-01-16T15:21:13Z</time>
      </trkpt>
      <trkpt lat="44.76475" lon="0.24154">
        <ele>170</ele>
        <time>2011-01-16T15:21:43Z</time>
      </trkpt>
      <trkpt lat="44.76504" lon="0.24216">
        <ele>175</ele>
        <time>2011-01-16T15:22:01Z</time>
      </trkpt>
      <trkpt lat="44.7652" lon="0.24272">
        <ele>174</ele>
        <time>2011-01-16T15:22:14Z</time>
      </trkpt>
      <trkpt lat="44.76537" lon="0.24296">
        <ele>174.5</ele>
        <time>2011-01-16T15:22:20Z</time>
      </trkpt>
      <trkpt lat="44.76559" lon="0.24372">
        <ele>155</ele>
        <time>2011-01-16T15:22:30Z</time>
      </trkpt>
      <trkpt lat="44.76552" lon="0.24467">
        <ele>146.5</ele>
        <time>2011-01-16T15:22:41Z</time>
      </trkpt>
      <trkpt lat="44.76534" lon="0.24521">
        <ele>152.5</ele>
        <time>2011-01-16T15:22:51Z</time>
      </trkpt>
      <trkpt lat="44.76498" lon="0.2458">
        <ele>147</ele>
        <time>2011-01-16T15:23:13Z</time>
      </trkpt>
      <trkpt lat="44.76424" lon="0.24646">
        <ele>140.5</ele>
        <time>2011-01-16T15:24:02Z</time>
      </trkpt>
      <trkpt lat="44.76352" lon="0.24738">
        <ele>158.5</ele>
        <time>2011-01-16T15:24:45Z</time>
      </trkpt>
      <trkpt lat="44.76323" lon="0.24811">
        <ele>157.5</ele>
        <time>2011-01-16T15:25:12Z</time>
      </trkpt>
      <trkpt lat="44.76308" lon="0.24903">
        <ele>168</ele>
        <time>2011-01-16T15:25:55Z</time>
      </trkpt>
      <trkpt lat="44.76291" lon="0.24947">
        <ele>171</ele>
        <time>2011-01-16T15:26:10Z</time>
      </trkpt>
      <trkpt lat="44.76242" lon="0.25014">
        <ele>165.5</ele>
        <time>2011-01-16T15:29:55Z</time>
      </trkpt>
      <trkpt lat="44.76289" lon="0.25088">
        <ele>171.5</ele>
        <time>2011-01-16T15:31:05Z</time>
      </trkpt>
      <trkpt lat="44.76344" lon="0.25145">
        <ele>171</ele>
        <time>2011-01-16T15:31:21Z</time>
      </trkpt>
      <trkpt lat="44.76444" lon="0.25188">
        <ele>165.5</ele>
        <time>2011-01-16T15:31:41Z</time>
      </trkpt>
      <trkpt lat="44.76458" lon="0.25211">
        <ele>165.5</ele>
        <time>2011-01-16T15:31:45Z</time>
      </trkpt>
      <trkpt lat="44.76579" lon="0.25305">
        <ele>162</ele>
        <time>2011-01-16T15:32:03Z</time>
      </trkpt>
      <trkpt lat="44.76696" lon="0.25433">
        <ele>163</ele>
        <time>2011-01-16T15:32:27Z</time>
      </trkpt>
      <trkpt lat="44.76726" lon="0.25411">
        <ele>167</ele>
        <time>2011-01-16T15:32:34Z</time>
      </trkpt>
      <trkpt lat="44.76809" lon="0.25439">
        <ele>175.5</ele>
        <time>2011-01-16T15:33:03Z</time>
      </trkpt>
      <trkpt lat="44.76827" lon="0.25463">
        <ele>173.5</ele>
        <time>2011-01-16T15:33:10Z</time>
      </trkpt>
      <trkpt lat="44.76841" lon="0.25467">
        <ele>165</ele>
        <time>2011-01-16T15:33:14Z</time>
      </trkpt>
      <trkpt lat="44.76873" lon="0.25501">
        <ele>157</ele>
        <time>2011-01-16T15:33:22Z</time>
      </trkpt>
      <trkpt lat="44.76939" lon="0.25549">
        <ele>139.5</ele>
        <time>2011-01-16T15:33:38Z</time>
      </trkpt>
      <trkpt lat="44.77128" lon="0.25656">
        <ele>133.5</ele>
        <time>2011-01-16T15:34:05Z</time>
      </trkpt>
      <trkpt lat="44.77199" lon="0.25682">
        <ele>136.5</ele>
        <time>2011-01-16T15:34:16Z</time>
      </trkpt>
      <trkpt lat="44.77272" lon="0.25731">
        <ele>138</ele>
        <time>2011-01-16T15:34:32Z</time>
      </trkpt>
      <trkpt lat="44.77323" lon="0.25741">
        <ele>139.5</ele>
        <time>2011-01-16T15:34:44Z</time>
      </trkpt>
      <trkpt lat="44.77447" lon="0.25794">
        <ele>133.5</ele>
        <time>2011-01-16T15:35:12Z</time>
      </trkpt>
      <trkpt lat="44.77572" lon="0.25905">
        <ele>132</ele>
        <time>2011-01-16T15:35:42Z</time>
      </trkpt>
      <trkpt lat="44.77698" lon="0.25936">
        <ele>135</ele>
        <time>2011-01-16T15:36:08Z</time>
      </trkpt>
      <trkpt lat="44.77866" lon="0.26011">
        <ele>136</ele>
        <time>2011-01-16T15:36:43Z</time>
      </trkpt>
      <trkpt lat="44.77919" lon="0.25954">
        <ele>133</ele>
        <time>2011-01-16T15:36:58Z</time>
      </trkpt>
      <trkpt lat="44.78136" lon="0.25934">
        <ele>128</ele>
        <time>2011-01-16T15:37:36Z</time>
      </trkpt>
      <trkpt lat="44.78224" lon="0.25947">
        <ele>126.5</ele>
        <time>2011-01-16T15:37:51Z</time>
      </trkpt>
      <trkpt lat="44.78317" lon="0.26012">
        <ele>125</ele>
        <time>2011-01-16T15:38:12Z</time>
      </trkpt>
      <trkpt lat="44.78388" lon="0.26035">
        <ele>122</ele>
        <time>2011-01-16T15:38:28Z</time>
      </trkpt>
      <trkpt lat="44.78475" lon="0.26154">
        <ele>117.5</ele>
        <time>2011-01-16T15:38:53Z</time>
      </trkpt>
      <trkpt lat="44.78527" lon="0.26302">
        <ele>126.5</ele>
        <time>2011-01-16T15:39:15Z</time>
      </trkpt>
      <trkpt lat="44.7855" lon="0.26332">
        <ele>126</ele>
        <time>2011-01-16T15:39:20Z</time>
      </trkpt>
      <trkpt lat="44.78613" lon="0.26362">
        <ele>132.5</ele>
        <time>2011-01-16T15:39:35Z</time>
      </trkpt>
      <trkpt lat="44.78691" lon="0.26222">
        <ele>137</ele>
        <time>2011-01-16T15:40:16Z</time>
      </trkpt>
      <trkpt lat="44.78807" lon="0.25932">
        <ele>149</ele>
        <time>2011-01-16T15:41:21Z</time>
      </trkpt>
      <trkpt lat="44.78829" lon="0.25843">
        <ele>146.5</ele>
        <time>2011-01-16T15:42:12Z</time>
      </trkpt>
      <trkpt lat="44.78844" lon="0.25837">
        <ele>143</ele>
        <time>2011-01-16T15:42:50Z</time>
      </trkpt>
      <trkpt lat="44.7885" lon="0.25819">
        <ele>151</ele>
        <time>2011-01-16T15:43:09Z</time>
      </trkpt>
      <trkpt lat="44.78895" lon="0.25811">
        <ele>172</ele>
        <time>2011-01-16T15:43:59Z</time>
      </trkpt>
      <trkpt lat="44.78966" lon="0.25773">
        <ele>163.5</ele>
        <time>2011-01-16T15:44:59Z</time>
      </trkpt>
      <trkpt lat="44.78974" lon="0.25749">
        <ele>164</ele>
        <time>2011-01-16T15:45:38Z</time>
      </trkpt>
      <trkpt lat="44.78969" lon="0.25748">
        <ele>162</ele>
        <time>2011-01-16T15:46:10Z</time>
      </trkpt>
      <trkpt lat="44.78965" lon="0.25656">
        <ele>180</ele>
        <time>2011-01-16T15:47:05Z</time>
      </trkpt>
      <trkpt lat="44.78976" lon="0.25648">
        <ele>170.5</ele>
        <time>2011-01-16T15:47:09Z</time>
      </trkpt>
      <trkpt lat="44.78995" lon="0.25573">
        <ele>176.5</ele>
        <time>2011-01-16T15:47:38Z</time>
      </trkpt>
      <trkpt lat="44.79004" lon="0.2549">
        <ele>179</ele>
        <time>2011-01-16T15:48:06Z</time>
      </trkpt>
      <trkpt lat="44.79016" lon="0.25465">
        <ele>172.5</ele>
        <time>2011-01-16T15:48:20Z</time>
      </trkpt>
      <trkpt lat="44.79047" lon="0.25342">
        <ele>183</ele>
        <time>2011-01-16T15:49:14Z</time>
      </trkpt>
      <trkpt lat="44.79047" lon="0.25312">
        <ele>183.5</ele>
        <time>2011-01-16T15:49:26Z</time>
      </trkpt>
      <trkpt lat="44.79081" lon="0.2523">
        <ele>171.5</ele>
        <time>2011-01-16T15:49:57Z</time>
      </trkpt>
      <trkpt lat="44.79167" lon="0.25207">
        <ele>167.5</ele>
        <time>2011-01-16T15:50:53Z</time>
      </trkpt>
      <trkpt lat="44.79196" lon="0.25214">
        <ele>183.5</ele>
        <time>2011-01-16T15:51:12Z</time>
      </trkpt>
      <trkpt lat="44.79214" lon="0.25186">
        <ele>195</ele>
        <time>2011-01-16T15:51:27Z</time>
      </trkpt>
      <trkpt lat="44.79258" lon="0.25199">
        <ele>171</ele>
        <time>2011-01-16T15:51:41Z</time>
      </trkpt>
      <trkpt lat="44.7926" lon="0.25208">
        <ele>169</ele>
        <time>2011-01-16T15:51:45Z</time>
      </trkpt>
      <trkpt lat="44.79343" lon="0.25229">
        <ele>183</ele>
        <time>2011-01-16T15:52:09Z</time>
      </trkpt>
      <trkpt lat="44.79382" lon="0.25265">
        <ele>179.5</ele>
        <time>2011-01-16T15:52:35Z</time>
      </trkpt>
      <trkpt lat="44.79392" lon="0.25256">
        <ele>177</ele>
        <time>2011-01-16T15:52:46Z</time>
      </trkpt>
      <trkpt lat="44.79491" lon="0.25296">
        <ele>182</ele>
        <time>2011-01-16T15:53:45Z</time>
      </trkpt>
      <trkpt lat="44.79517" lon="0.25282">
        <ele>200</ele>
        <time>2011-01-16T15:54:00Z</time>
      </trkpt>
      <trkpt lat="44.79519" lon="0.25271">
        <ele>199</ele>
        <time>2011-01-16T15:54:08Z</time>
      </trkpt>
      <trkpt lat="44.79546" lon="0.25253">
        <ele>197.5</ele>
        <time>2011-01-16T15:54:22Z</time>
      </trkpt>
      <trkpt lat="44.7956" lon="0.25218">
        <ele>196</ele>
        <time>2011-01-16T15:54:49Z</time>
      </trkpt>
      <trkpt lat="44.79619" lon="0.25153">
        <ele>189.5</ele>
        <time>2011-01-16T15:55:19Z</time>
      </trkpt>
      <trkpt lat="44.79653" lon="0.25064">
        <ele>176</ele>
        <time>2011-01-16T15:56:03Z</time>
      </trkpt>
      <trkpt lat="44.79666" lon="0.25047">
        <ele>180</ele>
        <time>2011-01-16T15:57:16Z</time>
      </trkpt>
      <trkpt lat="44.79586" lon="0.25094">
        <ele>192</ele>
        <time>2011-01-16T15:58:07Z</time>
      </trkpt>
      <trkpt lat="44.795" lon="0.25121">
        <ele>183.5</ele>
        <time>2011-01-16T15:58:35Z</time>
      </trkpt>
      <trkpt lat="44.79424" lon="0.25101">
        <ele>175.5</ele>
        <time>2011-01-16T15:58:58Z</time>
      </trkpt>
      <trkpt lat="44.79324" lon="0.25166">
        <ele>199.5</ele>
        <time>2011-01-16T15:59:44Z</time>
      </trkpt>
      <trkpt lat="44.79252" lon="0.2514">
        <ele>201</ele>
        <time>2011-01-16T16:00:08Z</time>
      </trkpt>
      <trkpt lat="44.79232" lon="0.25121">
        <ele>206.5</ele>
        <time>2011-01-16T16:00:20Z</time>
      </trkpt>
      <trkpt lat="44.79218" lon="0.25124">
        <ele>196.5</ele>
        <time>2011-01-16T16:00:24Z</time>
      </trkpt>
      <trkpt lat="44.79082" lon="0.25067">
        <ele>183.5</ele>
        <time>2011-01-16T16:01:12Z</time>
      </trkpt>
      <trkpt lat="44.79065" lon="0.25042">
        <ele>177</ele>
        <time>2011-01-16T16:01:18Z</time>
      </trkpt>
      <trkpt lat="44.79072" lon="0.25013">
        <ele>168</ele>
        <time>2011-01-16T16:01:25Z</time>
      </trkpt>
      <trkpt lat="44.79062" lon="0.24988">
        <ele>178.5</ele>
        <time>2011-01-16T16:01:48Z</time>
      </trkpt>
      <trkpt lat="44.79065" lon="0.24953">
        <ele>185</ele>
        <time>2011-01-16T16:02:04Z</time>
      </trkpt>
      <trkpt lat="44.7909" lon="0.24919">
        <ele>182.5</ele>
        <time>2011-01-16T16:02:25Z</time>
      </trkpt>
      <trkpt lat="44.79137" lon="0.24907">
        <ele>180.5</ele>
        <time>2011-01-16T16:02:43Z</time>
      </trkpt>
      <trkpt lat="44.7916" lon="0.24915">
        <ele>195.5</ele>
        <time>2011-01-16T16:02:58Z</time>
      </trkpt>
      <trkpt lat="44.79187" lon="0.24958">
        <ele>137</ele>
        <time>2011-01-16T16:03:14Z</time>
      </trkpt>
      <trkpt lat="44.79213" lon="0.2495">
        <ele>153</ele>
        <time>2011-01-16T16:03:52Z</time>
      </trkpt>
      <trkpt lat="44.79241" lon="0.24961">
        <ele>164.5</ele>
        <time>2011-01-16T16:05:20Z</time>
      </trkpt>
      <trkpt lat="44.79241" lon="0.24934">
        <ele>164</ele>
        <time>2011-01-16T16:05:40Z</time>
      </trkpt>
      <trkpt lat="44.79218" lon="0.24909">
        <ele>175</ele>
        <time>2011-01-16T16:05:53Z</time>
      </trkpt>
      <trkpt lat="44.7922" lon="0.24888">
        <ele>177.5</ele>
        <time>2011-01-16T16:05:59Z</time>
      </trkpt>
      <trkpt lat="44.79213" lon="0.24881">
        <ele>178</ele>
        <time>2011-01-16T16:06:02Z</time>
      </trkpt>
      <trkpt lat="44.79213" lon="0.24852">
        <ele>171.5</ele>
        <time>2011-01-16T16:06:13Z</time>
      </trkpt>
      <trkpt lat="44.79257" lon="0.24776">
        <ele>188.5</ele>
        <time>2011-01-16T16:06:33Z</time>
      </trkpt>
      <trkpt lat="44.79231" lon="0.24763">
        <ele>190.5</ele>
        <time>2011-01-16T16:06:57Z</time>
      </trkpt>
      <trkpt lat="44.79221" lon="0.2477">
        <ele>194.5</ele>
        <time>2011-01-16T16:07:04Z</time>
      </trkpt>
      <trkpt lat="44.79205" lon="0.24756">
        <ele>192.5</ele>
        <time>2011-01-16T16:07:12Z</time>
      </trkpt>
      <trkpt lat="44.79204" lon="0.24706">
        <ele>178</ele>
        <time>2011-01-16T16:07:24Z</time>
      </trkpt>
      <trkpt lat="44.79191" lon="0.24688">
        <ele>171</ele>
        <time>2011-01-16T16:07:30Z</time>
      </trkpt>
      <trkpt lat="44.79197" lon="0.24622">
        <ele>182</ele>
        <time>2011-01-16T16:07:47Z</time>
      </trkpt>
      <trkpt lat="44.79216" lon="0.24578">
        <ele>177.5</ele>
        <time>2011-01-16T16:08:02Z</time>
      </trkpt>
      <trkpt lat="44.79233" lon="0.24561">
        <ele>174</ele>
        <time>2011-01-16T16:08:08Z</time>
      </trkpt>
      <trkpt lat="44.79319" lon="0.24518">
        <ele>155</ele>
        <time>2011-01-16T16:08:35Z</time>
      </trkpt>
      <trkpt lat="44.79341" lon="0.2448">
        <ele>176</ele>
        <time>2011-01-16T16:08:50Z</time>
      </trkpt>
      <trkpt lat="44.79365" lon="0.24465">
        <ele>179</ele>
        <time>2011-01-16T16:09:11Z</time>
      </trkpt>
      <trkpt lat="44.79421" lon="0.24498">
        <ele>173</ele>
        <time>2011-01-16T16:09:41Z</time>
      </trkpt>
      <trkpt lat="44.79446" lon="0.24526">
        <ele>177.5</ele>
        <time>2011-01-16T16:09:55Z</time>
      </trkpt>
      <trkpt lat="44.79472" lon="0.24575">
        <ele>187</ele>
        <time>2011-01-16T16:10:07Z</time>
      </trkpt>
      <trkpt lat="44.7949" lon="0.24592">
        <ele>198.5</ele>
        <time>2011-01-16T16:10:14Z</time>
      </trkpt>
      <trkpt lat="44.79499" lon="0.24617">
        <ele>201</ele>
        <time>2011-01-16T16:10:19Z</time>
      </trkpt>
      <trkpt lat="44.79496" lon="0.24641">
        <ele>200</ele>
        <time>2011-01-16T16:10:24Z</time>
      </trkpt>
      <trkpt lat="44.79509" lon="0.24676">
        <ele>203.5</ele>
        <time>2011-01-16T16:10:32Z</time>
      </trkpt>
      <trkpt lat="44.79555" lon="0.24736">
        <ele>220</ele>
        <time>2011-01-16T16:11:02Z</time>
      </trkpt>
      <trkpt lat="44.79567" lon="0.24776">
        <ele>191</ele>
        <time>2011-01-16T16:11:11Z</time>
      </trkpt>
      <trkpt lat="44.79593" lon="0.24797">
        <ele>170.5</ele>
        <time>2011-01-16T16:11:24Z</time>
      </trkpt>
      <trkpt lat="44.79595" lon="0.24819">
        <ele>158</ele>
        <time>2011-01-16T16:11:30Z</time>
      </trkpt>
      <trkpt lat="44.7963" lon="0.24878">
        <ele>160.5</ele>
        <time>2011-01-16T16:11:49Z</time>
      </trkpt>
      <trkpt lat="44.7971" lon="0.24965">
        <ele>191</ele>
        <time>2011-01-16T16:12:29Z</time>
      </trkpt>
      <trkpt lat="44.79757" lon="0.24993">
        <ele>187.5</ele>
        <time>2011-01-16T16:12:44Z</time>
      </trkpt>
      <trkpt lat="44.79777" lon="0.24985">
        <ele>193</ele>
        <time>2011-01-16T16:12:48Z</time>
      </trkpt>
      <trkpt lat="44.79802" lon="0.25008">
        <ele>182</ele>
        <time>2011-01-16T16:13:18Z</time>
      </trkpt>
      <trkpt lat="44.79847" lon="0.2501">
        <ele>181.5</ele>
        <time>2011-01-16T16:13:45Z</time>
      </trkpt>
      <trkpt lat="44.79872" lon="0.24999">
        <ele>182.5</ele>
        <time>2011-01-16T16:14:03Z</time>
      </trkpt>
      <trkpt lat="44.79945" lon="0.25017">
        <ele>177</ele>
        <time>2011-01-16T16:14:50Z</time>
      </trkpt>
      <trkpt lat="44.80035" lon="0.25022">
        <ele>207.5</ele>
        <time>2011-01-16T16:15:26Z</time>
      </trkpt>
      <trkpt lat="44.80049" lon="0.25041">
        <ele>199</ele>
        <time>2011-01-16T16:15:41Z</time>
      </trkpt>
      <trkpt lat="44.80056" lon="0.25085">
        <ele>149.5</ele>
        <time>2011-01-16T16:16:02Z</time>
      </trkpt>
      <trkpt lat="44.80083" lon="0.25098">
        <ele>125.5</ele>
        <time>2011-01-16T16:16:17Z</time>
      </trkpt>
      <trkpt lat="44.80072" lon="0.25252">
        <ele>148</ele>
        <time>2011-01-16T16:16:39Z</time>
      </trkpt>
      <trkpt lat="44.80046" lon="0.25319">
        <ele>159</ele>
        <time>2011-01-16T16:16:52Z</time>
      </trkpt>
      <trkpt lat="44.79956" lon="0.25475">
        <ele>162.5</ele>
        <time>2011-01-16T16:17:26Z</time>
      </trkpt>
      <trkpt lat="44.79941" lon="0.25514">
        <ele>167.5</ele>
        <time>2011-01-16T16:17:35Z</time>
      </trkpt>
      <trkpt lat="44.79916" lon="0.25503">
        <ele>172</ele>
        <time>2011-01-16T16:17:48Z</time>
      </trkpt>
      <trkpt lat="44.79902" lon="0.25541">
        <ele>169</ele>
        <time>2011-01-16T16:18:11Z</time>
      </trkpt>
      <trkpt lat="44.79908" lon="0.25546">
        <ele>174.5</ele>
        <time>2011-01-16T16:18:18Z</time>
      </trkpt>
      <trkpt lat="44.79898" lon="0.25568">
        <ele>168</ele>
        <time>2011-01-16T16:18:26Z</time>
      </trkpt>
      <trkpt lat="44.7985" lon="0.25585">
        <ele>151</ele>
        <time>2011-01-16T16:18:43Z</time>
      </trkpt>
      <trkpt lat="44.79832" lon="0.25636">
        <ele>181</ele>
        <time>2011-01-16T16:19:05Z</time>
      </trkpt>
      <trkpt lat="44.79808" lon="0.25658">
        <ele>177.5</ele>
        <time>2011-01-16T16:19:18Z</time>
      </trkpt>
      <trkpt lat="44.7974" lon="0.25677">
        <ele>145.5</ele>
        <time>2011-01-16T16:19:36Z</time>
      </trkpt>
      <trkpt lat="44.7953" lon="0.25679">
        <ele>154.5</ele>
        <time>2011-01-16T16:20:43Z</time>
      </trkpt>
      <trkpt lat="44.79533" lon="0.25697">
        <ele>156.5</ele>
        <time>2011-01-16T16:20:49Z</time>
      </trkpt>
      <trkpt lat="44.79521" lon="0.25713">
        <ele>155</ele>
        <time>2011-01-16T16:20:54Z</time>
      </trkpt>
      <trkpt lat="44.79486" lon="0.25716">
        <ele>154</ele>
        <time>2011-01-16T16:21:04Z</time>
      </trkpt>
      <trkpt lat="44.79482" lon="0.25751">
        <ele>151</ele>
        <time>2011-01-16T16:21:17Z</time>
      </trkpt>
      <trkpt lat="44.79471" lon="0.25748">
        <ele>143</ele>
        <time>2011-01-16T16:21:41Z</time>
      </trkpt>
      <trkpt lat="44.79481" lon="0.25757">
        <ele>142</ele>
        <time>2011-01-16T16:21:56Z</time>
      </trkpt>
      <trkpt lat="44.79475" lon="0.25812">
        <ele>144</ele>
        <time>2011-01-16T16:22:25Z</time>
      </trkpt>
      <trkpt lat="44.79539" lon="0.25846">
        <ele>153.5</ele>
        <time>2011-01-16T16:22:57Z</time>
      </trkpt>
      <trkpt lat="44.79527" lon="0.25891">
        <ele>171</ele>
        <time>2011-01-16T16:23:15Z</time>
      </trkpt>
      <trkpt lat="44.79541" lon="0.25903">
        <ele>165.5</ele>
        <time>2011-01-16T16:23:25Z</time>
      </trkpt>
      <trkpt lat="44.79552" lon="0.25892">
        <ele>179.5</ele>
        <time>2011-01-16T16:23:37Z</time>
      </trkpt>
      <trkpt lat="44.79588" lon="0.25894">
        <ele>180.5</ele>
        <time>2011-01-16T16:23:55Z</time>
      </trkpt>
      <trkpt lat="44.79634" lon="0.25919">
        <ele>164</ele>
        <time>2011-01-16T16:24:17Z</time>
      </trkpt>
      <trkpt lat="44.79636" lon="0.26019">
        <ele>127</ele>
        <time>2011-01-16T16:24:38Z</time>
      </trkpt>
      <trkpt lat="44.79646" lon="0.26055">
        <ele>135.5</ele>
        <time>2011-01-16T16:24:48Z</time>
      </trkpt>
      <trkpt lat="44.79647" lon="0.26133">
        <ele>157.5</ele>
        <time>2011-01-16T16:25:18Z</time>
      </trkpt>
      <trkpt lat="44.79632" lon="0.26212">
        <ele>151</ele>
        <time>2011-01-16T16:25:40Z</time>
      </trkpt>
      <trkpt lat="44.79634" lon="0.2624">
        <ele>153</ele>
        <time>2011-01-16T16:25:48Z</time>
      </trkpt>
      <trkpt lat="44.79666" lon="0.26269">
        <ele>161.5</ele>
        <time>2011-01-16T16:26:06Z</time>
      </trkpt>
      <trkpt lat="44.79661" lon="0.26285">
        <ele>163</ele>
        <time>2011-01-16T16:26:20Z</time>
      </trkpt>
      <trkpt lat="44.7965" lon="0.26288">
        <ele>166.5</ele>
        <time>2011-01-16T16:26:27Z</time>
      </trkpt>
      <trkpt lat="44.79642" lon="0.26319">
        <ele>164.5</ele>
        <time>2011-01-16T16:26:41Z</time>
      </trkpt>
      <trkpt lat="44.7962" lon="0.26319">
        <ele>170.5</ele>
        <time>2011-01-16T16:27:02Z</time>
      </trkpt>
      <trkpt lat="44.79601" lon="0.26305">
        <ele>161.5</ele>
        <time>2011-01-16T16:27:29Z</time>
      </trkpt>
      <trkpt lat="44.79597" lon="0.26286">
        <ele>170</ele>
        <time>2011-01-16T16:27:43Z</time>
      </trkpt>
      <trkpt lat="44.79566" lon="0.26239">
        <ele>185.5</ele>
        <time>2011-01-16T16:28:26Z</time>
      </trkpt>
      <trkpt lat="44.79494" lon="0.26212">
        <ele>180</ele>
        <time>2011-01-16T16:28:54Z</time>
      </trkpt>
      <trkpt lat="44.79468" lon="0.26229">
        <ele>178</ele>
        <time>2011-01-16T16:29:01Z</time>
      </trkpt>
      <trkpt lat="44.79435" lon="0.26317">
        <ele>174</ele>
        <time>2011-01-16T16:29:23Z</time>
      </trkpt>
      <trkpt lat="44.79444" lon="0.26417">
        <ele>160</ele>
        <time>2011-01-16T16:29:39Z</time>
      </trkpt>
      <trkpt lat="44.7942" lon="0.26452">
        <ele>148.5</ele>
        <time>2011-01-16T16:30:28Z</time>
      </trkpt>
      <trkpt lat="44.79426" lon="0.26455">
        <ele>149</ele>
        <time>2011-01-16T16:30:34Z</time>
      </trkpt>
      <trkpt lat="44.79177" lon="0.26546">
        <ele>129</ele>
        <time>2011-01-16T16:31:34Z</time>
      </trkpt>
      <trkpt lat="44.791" lon="0.26538">
        <ele>128.5</ele>
        <time>2011-01-16T16:31:47Z</time>
      </trkpt>
      <trkpt lat="44.79059" lon="0.26546">
        <ele>127</ele>
        <time>2011-01-16T16:31:54Z</time>
      </trkpt>
      <trkpt lat="44.79" lon="0.26599">
        <ele>136</ele>
        <time>2011-01-16T16:32:09Z</time>
      </trkpt>
      <trkpt lat="44.78944" lon="0.26627">
        <ele>132.5</ele>
        <time>2011-01-16T16:32:19Z</time>
      </trkpt>
      <trkpt lat="44.78892" lon="0.26638">
        <ele>130.5</ele>
        <time>2011-01-16T16:32:28Z</time>
      </trkpt>
      <trkpt lat="44.78814" lon="0.2668">
        <ele>129.5</ele>
        <time>2011-01-16T16:32:41Z</time>
      </trkpt>
      <trkpt lat="44.7874" lon="0.267">
        <ele>129.5</ele>
        <time>2011-01-16T16:32:54Z</time>
      </trkpt>
      <trkpt lat="44.78669" lon="0.26816">
        <ele>121</ele>
        <time>2011-01-16T16:33:07Z</time>
      </trkpt>
      <trkpt lat="44.78644" lon="0.26884">
        <ele>118</ele>
        <time>2011-01-16T16:33:14Z</time>
      </trkpt>
      <trkpt lat="44.78603" lon="0.26902">
        <ele>117</ele>
        <time>2011-01-16T16:33:19Z</time>
      </trkpt>
      <trkpt lat="44.78555" lon="0.26906">
        <ele>121</ele>
        <time>2011-01-16T16:33:26Z</time>
      </trkpt>
      <trkpt lat="44.78532" lon="0.26875">
        <ele>126</ele>
        <time>2011-01-16T16:33:40Z</time>
      </trkpt>
      <trkpt lat="44.78537" lon="0.26858">
        <ele>125.5</ele>
        <time>2011-01-16T16:33:46Z</time>
      </trkpt>
      <trkpt lat="44.7853" lon="0.26855">
        <ele>125.5</ele>
        <time>2011-01-16T16:33:50Z</time>
      </trkpt>
      <trkpt lat="44.78527" lon="0.2687">
        <ele>126.5</ele>
        <time>2011-01-16T16:34:10Z</time>
      </trkpt>
      <trkpt lat="44.78513" lon="0.26842">
        <ele>126</ele>
        <time>2011-01-16T16:35:26Z</time>
      </trkpt>
      <trkpt lat="44.78504" lon="0.26779">
        <ele>119</ele>
        <time>2011-01-16T16:35:59Z</time>
      </trkpt>
      <trkpt lat="44.78514" lon="0.2675">
        <ele>119</ele>
        <time>2011-01-16T16:37:20Z</time>
      </trkpt>
    </trkseg>
  </trk>
</gpx>